TOCUMWAL AIRPORT, Australia

7:48 PM AEDT on January 19, 2017 (GMT +1100)
Cobram | | Change Station

Elev 420 ft 35.92 °S, 145.67 °E | Updated 21 seconds ago

Partly Cloudy
Partly Cloudy
85.1 °F
Feels Like 83 °F
N
0.0
Wind Variable Wind from NNE
Gusts 0.0 mph

Today
High -- | Low -- °F
--% Chance of Precip.
Yesterday
High -- | Low -- °F
Precip. -- in
Pressure 29.62 in
Visibility 6.2 miles
Clouds
Heat Index 83 °F
Dew Point 53 °F
Humidity 33%
Rainfall 0.00 in
Snow Depth Not available.
6:21 AM 8:34 PM
Waning Gibbous, 55% visible
METAR YWGT 190800Z AUTO 06005KT 020V090 9999 // NCD 32/01 Q1003
Pressure 29.62 in
Visibility 6.2 miles
Clouds
Heat Index 83 °F
Dew Point 53 °F
Humidity 33%
Rainfall 0.00 in
Snow Depth Not available.
6:21 AM 8:34 PM
Waning Gibbous, 55% visible
METAR YWGT 190800Z AUTO 06005KT 020V090 9999 // NCD 32/01 Q1003

Get Your Daily Forecast Email!

Thanks for signing up!

Be on the lookout for a verification email in your inbox.

You'll start receiving the daily forecast at 8 AM.

×

10-Day Weather Forecast

×

Almanac

Astronomy

Jan. 19, 2017 Rise Set
Actual Time
Civil Twilight
Nautical Twilight
Astronomical Twilight
Moon
Length of Visible Light
Length of Day
Tomorrow will be .
, % of the Moon is Illuminated

Today's Extremes

Country Highs Country Lows

Community

WunderPhotos

Upload Photos

1,962,540 photos uploaded!

WunderBlog® & News

Nearby

Air Quality

  Air Quality AQ Index Pollutant
Not available.

Snow Depth

Station Depth Elevation

Earthquake Activity

City Distance Mag. Time & Date
Minimum magnitude displayed is 2.5.

Coastal Water Temperatures

Place Temperature

Stations

Nearby Weather Stations

Station Location Temp. Windchill Dew Point Humidity Wind Precip. Elev Updated Type